Terminal Aerodrome Forecast
Issued by NWS

Home | Current Version | Previous Version | Text Only | Print | Product List | Glossary On
Versions: 1 2 3 4 5 6 7 8 9 10 11 12 13
000
FTUS46 KSEW 261100 RRA
TAFCLM
TAF
KCLM 261135Z 2612/2712 00000KT P6SM FEW011 BKN028 OVC035
      TEMPO 2614/2618 OVC010
     FM262200 05003KT P6SM SCT025 BKN040 OVC070
     FM270300 23003KT P6SM OVC025
     FM270900 25003KT P6SM -RA OVC015=

USA.gov is the U.S. government's official web portal to all federal, state and local government web resources and services.